createdAt,value
2018-07-26T00:01:38.640Z,10.77
2018-07-26T00:04:07.053Z,10.33
2018-07-26T00:06:35.526Z,10.30
2018-07-26T00:09:06.077Z,10.10
2018-07-26T00:11:34.487Z,9.93
2018-07-26T00:14:02.888Z,10.93
2018-07-26T00:16:31.244Z,10.03
2018-07-26T00:18:59.636Z,10.53
2018-07-26T00:21:28.133Z,10.70
2018-07-26T00:23:56.497Z,11.27
2018-07-26T00:26:25.009Z,11.13
2018-07-26T00:28:53.405Z,10.60
2018-07-26T00:31:21.799Z,11.00
2018-07-26T00:33:50.169Z,10.57
2018-07-26T00:36:18.552Z,10.87
2018-07-26T00:38:46.943Z,11.03
2018-07-26T00:41:15.098Z,11.00
2018-07-26T00:43:43.536Z,11.50
2018-07-26T00:46:11.920Z,10.07
2018-07-26T00:48:40.427Z,10.40
2018-07-26T00:51:08.798Z,10.73
2018-07-26T00:53:37.176Z,10.90
2018-07-26T00:56:05.705Z,10.97
2018-07-26T00:58:34.072Z,10.27
2018-07-26T01:01:02.593Z,11.17
2018-07-26T01:03:31.015Z,11.00
2018-07-26T01:05:59.453Z,11.20
2018-07-26T01:08:27.821Z,10.30
2018-07-26T01:10:56.203Z,12.00
2018-07-26T01:13:24.573Z,10.60
2018-07-26T01:15:52.996Z,11.90
2018-07-26T01:18:21.411Z,11.50
2018-07-26T01:20:49.799Z,11.47
2018-07-26T01:23:17.849Z,11.77
2018-07-26T01:25:46.237Z,11.63
2018-07-26T01:28:14.595Z,12.20
2018-07-26T01:30:42.941Z,12.20
2018-07-26T01:33:11.364Z,11.80
2018-07-26T01:35:39.717Z,12.20
2018-07-26T01:38:08.084Z,11.60
2018-07-26T01:40:36.493Z,11.50
2018-07-26T01:43:20.068Z,11.60
2018-07-26T01:45:48.479Z,12.10
2018-07-26T01:48:16.872Z,11.67
2018-07-26T01:50:45.217Z,11.60
2018-07-26T01:53:13.602Z,11.50
2018-07-26T01:55:41.963Z,11.40
2018-07-26T01:58:10.329Z,11.20
2018-07-26T02:00:38.727Z,11.57
2018-07-26T02:03:07.384Z,11.63
2018-07-26T02:05:35.739Z,11.00
2018-07-26T02:08:04.117Z,11.90
2018-07-26T02:10:32.544Z,11.40
2018-07-26T02:13:00.955Z,11.97
2018-07-26T02:15:29.310Z,12.07
2018-07-26T02:17:57.701Z,10.90
2018-07-26T02:20:26.076Z,11.20
2018-07-26T02:22:54.502Z,10.97
2018-07-26T02:25:22.969Z,11.57
2018-07-26T02:27:51.288Z,11.50
2018-07-26T02:30:19.659Z,11.33
2018-07-26T02:32:47.768Z,11.40
2018-07-26T02:35:16.114Z,11.20
2018-07-26T02:37:44.491Z,10.63
2018-07-26T02:40:12.823Z,11.90
2018-07-26T02:42:41.189Z,12.20
2018-07-26T02:45:09.590Z,11.27
2018-07-26T02:47:38.002Z,11.43
2018-07-26T02:50:06.533Z,11.80
2018-07-26T02:52:34.901Z,11.10
2018-07-26T02:55:03.312Z,11.60
2018-07-26T02:57:31.696Z,11.67
2018-07-26T03:00:00.064Z,11.53
2018-07-26T03:02:28.438Z,11.87
2018-07-26T03:04:56.785Z,12.10
2018-07-26T03:07:25.128Z,12.20
2018-07-26T03:09:53.557Z,11.50
2018-07-26T03:12:21.948Z,11.63
2018-07-26T03:14:50.344Z,11.87
2018-07-26T03:17:18.698Z,11.67
2018-07-26T03:19:47.101Z,11.40
2018-07-26T03:22:15.525Z,10.93
2018-07-26T03:24:43.637Z,11.40
2018-07-26T03:27:12.010Z,11.17
2018-07-26T03:29:40.384Z,11.33
2018-07-26T03:32:09.496Z,11.07
2018-07-26T03:34:37.907Z,11.43
2018-07-26T03:37:06.320Z,12.00
2018-07-26T03:39:34.712Z,11.13
2018-07-26T03:42:03.129Z,11.10
2018-07-26T03:44:31.601Z,11.37
2018-07-26T03:47:00.088Z,11.90
2018-07-26T03:49:28.849Z,11.03
2018-07-26T03:51:57.244Z,11.50
2018-07-26T03:54:25.744Z,10.90
2018-07-26T03:56:54.157Z,10.90
2018-07-26T03:59:22.572Z,11.50
2018-07-26T04:01:50.975Z,10.90
2018-07-26T04:04:19.333Z,10.00
2018-07-26T04:06:47.803Z,11.40
2018-07-26T04:09:16.324Z,10.80
2018-07-26T04:11:45.800Z,10.57
2018-07-26T04:14:14.168Z,11.80
2018-07-26T04:16:42.533Z,10.53
2018-07-26T04:19:11.751Z,10.80
2018-07-26T04:21:40.864Z,10.33
2018-07-26T04:24:09.266Z,11.50
2018-07-26T04:26:37.950Z,10.53
2018-07-26T04:29:06.598Z,10.37
2018-07-26T04:31:35.035Z,10.40
2018-07-26T04:34:03.398Z,10.17
2018-07-26T04:36:31.813Z,9.70
2018-07-26T04:39:00.742Z,9.80
2018-07-26T04:41:29.169Z,10.60
2018-07-26T04:43:57.578Z,10.77
2018-07-26T04:46:25.944Z,9.97
2018-07-26T04:48:54.603Z,10.10
2018-07-26T04:51:22.919Z,10.53
2018-07-26T04:53:51.361Z,10.23
2018-07-26T04:56:19.760Z,10.13
2018-07-26T04:58:48.165Z,10.50
2018-07-26T05:01:16.592Z,9.80
2018-07-26T05:03:44.996Z,10.23
2018-07-26T05:06:13.421Z,10.00
2018-07-26T05:08:41.824Z,9.80
2018-07-26T05:11:10.241Z,10.10
2018-07-26T05:13:38.655Z,9.63
2018-07-26T05:16:07.081Z,9.70
2018-07-26T05:18:35.504Z,10.10
2018-07-26T05:21:03.841Z,9.90
2018-07-26T05:23:32.236Z,9.60
2018-07-26T05:26:00.665Z,9.07
2018-07-26T05:28:29.059Z,10.40
2018-07-26T05:30:57.431Z,8.67
2018-07-26T05:33:25.834Z,9.00
2018-07-26T05:35:54.237Z,9.10
2018-07-26T05:38:22.624Z,9.67
2018-07-26T05:40:51.052Z,8.63
2018-07-26T05:43:19.489Z,8.60
2018-07-26T05:45:47.895Z,8.17
2018-07-26T05:48:16.312Z,8.40
2018-07-26T05:50:44.715Z,7.90
2018-07-26T05:53:13.120Z,7.50
2018-07-26T05:55:41.485Z,8.50
2018-07-26T05:58:09.896Z,7.47
2018-07-26T06:00:38.283Z,7.90
2018-07-26T06:03:06.848Z,8.03
2018-07-26T06:05:35.268Z,7.50
2018-07-26T06:08:03.701Z,7.93
2018-07-26T06:10:32.077Z,7.80
2018-07-26T06:13:00.460Z,8.10
2018-07-26T06:15:28.836Z,7.97
2018-07-26T06:17:57.219Z,7.27
2018-07-26T06:20:25.596Z,7.97
2018-07-26T06:22:54.015Z,7.43
2018-07-26T06:25:22.445Z,7.20
2018-07-26T06:27:50.837Z,7.87
2018-07-26T06:30:19.141Z,7.33
2018-07-26T06:32:47.530Z,7.87
2018-07-26T06:35:15.917Z,7.40
2018-07-26T06:37:44.317Z,7.27
2018-07-26T06:40:12.677Z,7.27
2018-07-26T06:42:41.073Z,7.10
2018-07-26T06:45:10.256Z,7.57
2018-07-26T06:47:38.651Z,7.20
2018-07-26T06:50:08.720Z,7.30
2018-07-26T06:52:37.162Z,7.07
2018-07-26T06:55:05.608Z,6.90
2018-07-26T06:57:34.005Z,7.27
2018-07-26T07:00:02.479Z,7.60
2018-07-26T07:02:30.827Z,7.03
2018-07-26T07:04:59.501Z,7.43
2018-07-26T07:07:27.889Z,7.10
2018-07-26T07:09:56.375Z,6.90
2018-07-26T07:12:24.774Z,7.20
2018-07-26T07:14:53.202Z,7.77
2018-07-26T07:17:21.604Z,6.63
2018-07-26T07:19:49.993Z,6.47
2018-07-26T07:22:18.313Z,7.10
2018-07-26T07:24:46.680Z,6.43
2018-07-26T07:27:15.074Z,6.50
2018-07-26T07:29:43.515Z,6.77
2018-07-26T07:32:12.325Z,6.90
2018-07-26T07:34:41.184Z,7.10
2018-07-26T07:37:09.774Z,6.87
2018-07-26T07:39:38.373Z,7.00
2018-07-26T07:42:06.767Z,6.70
2018-07-26T07:44:35.151Z,6.43
2018-07-26T07:47:03.603Z,6.77
2018-07-26T07:49:32.001Z,6.67
2018-07-26T07:52:00.399Z,6.27
2018-07-26T07:54:28.764Z,6.30
2018-07-26T07:56:57.190Z,6.50
2018-07-26T07:59:25.568Z,6.27
2018-07-26T08:01:54.027Z,6.40
2018-07-26T08:04:22.527Z,6.20
2018-07-26T08:06:50.948Z,5.87
2018-07-26T08:09:19.308Z,6.47
2018-07-26T08:11:47.738Z,5.63
2018-07-26T08:14:16.124Z,5.70
2018-07-26T08:16:44.591Z,6.10
2018-07-26T08:19:13.021Z,5.80
2018-07-26T08:21:41.433Z,6.30
2018-07-26T08:24:09.931Z,6.20
2018-07-26T08:26:38.360Z,5.50
2018-07-26T08:29:06.754Z,5.90
2018-07-26T08:31:35.120Z,6.03
2018-07-26T08:34:03.593Z,5.97
2018-07-26T08:36:32.045Z,5.90
2018-07-26T08:39:00.510Z,6.23
2018-07-26T08:41:28.944Z,6.70
2018-07-26T08:43:57.381Z,6.27
2018-07-26T08:46:25.875Z,5.80
2018-07-26T08:48:54.230Z,5.50
2018-07-26T08:51:22.720Z,5.63
2018-07-26T08:53:51.104Z,5.60
2018-07-26T08:56:19.541Z,5.37
2018-07-26T08:58:48.136Z,5.67
2018-07-26T09:01:16.531Z,5.87
2018-07-26T09:03:44.883Z,5.00
2018-07-26T09:06:13.858Z,5.73
2018-07-26T09:08:42.243Z,5.70
2018-07-26T09:11:10.620Z,5.73
2018-07-26T09:13:39.011Z,5.17
2018-07-26T09:16:07.489Z,5.67
2018-07-26T09:18:36.014Z,5.03
2018-07-26T09:21:04.477Z,5.27
2018-07-26T09:23:32.949Z,5.87
2018-07-26T09:26:01.345Z,6.53
2018-07-26T09:28:29.727Z,5.87
2018-07-26T09:30:58.152Z,6.50
2018-07-26T09:33:26.570Z,5.33
2018-07-26T09:35:55.013Z,4.90
2018-07-26T09:38:23.436Z,4.50
2018-07-26T09:40:51.819Z,4.90
2018-07-26T09:43:20.626Z,4.77
2018-07-26T09:45:49.027Z,4.93
2018-07-26T09:48:17.399Z,5.13
2018-07-26T09:50:45.835Z,5.10
2018-07-26T09:53:14.241Z,4.23
2018-07-26T09:55:42.670Z,4.90
2018-07-26T09:58:11.076Z,4.30
2018-07-26T10:00:44.919Z,4.80
2018-07-26T10:03:13.436Z,3.93
2018-07-26T10:05:41.861Z,4.93
2018-07-26T10:08:10.409Z,4.13
2018-07-26T10:10:38.876Z,4.53
2018-07-26T10:13:07.382Z,4.10
2018-07-26T10:15:35.824Z,3.80
2018-07-26T10:18:04.306Z,3.50
2018-07-26T10:20:32.668Z,3.80
2018-07-26T10:23:01.051Z,3.73
2018-07-26T10:25:29.497Z,3.17
2018-07-26T10:27:57.996Z,2.63
2018-07-26T10:30:26.459Z,3.00
2018-07-26T10:32:54.928Z,2.40
2018-07-26T10:35:23.375Z,2.57
2018-07-26T10:37:51.920Z,2.10
2018-07-26T10:40:20.662Z,2.30
2018-07-26T10:42:49.493Z,2.00
2018-07-26T10:45:17.658Z,2.27
2018-07-26T10:47:45.811Z,2.00
2018-07-26T10:50:14.472Z,2.00
2018-07-26T10:52:42.977Z,1.95
2018-07-26T10:55:11.052Z,1.70
2018-07-26T10:57:39.538Z,1.73
2018-07-26T11:00:09.280Z,1.57
2018-07-26T11:02:38.078Z,1.80
2018-07-26T11:05:08.501Z,1.67
2018-07-26T11:07:37.475Z,1.30
2018-07-26T11:10:07.610Z,1.57
2018-07-26T11:12:36.458Z,1.60
2018-07-26T11:15:08.304Z,1.90
2018-07-26T11:17:36.901Z,1.60
2018-07-26T11:20:05.410Z,1.30
2018-07-26T11:22:33.851Z,1.20
2018-07-26T11:25:02.367Z,1.20
2018-07-26T11:27:31.369Z,1.30
2018-07-26T11:30:00.004Z,1.50
2018-07-26T11:32:28.508Z,1.57
2018-07-26T11:34:56.866Z,1.30
2018-07-26T11:37:25.285Z,1.40
2018-07-26T11:39:53.714Z,1.67
2018-07-26T11:42:22.206Z,1.40
2018-07-26T11:44:52.058Z,1.70
2018-07-26T11:47:20.716Z,1.53
2018-07-26T11:49:49.234Z,1.40
2018-07-26T11:54:45.519Z,1.10
2018-07-26T11:57:14.280Z,1.30
2018-07-26T11:59:42.648Z,1.30
2018-07-26T12:02:11.235Z,1.30
2018-07-26T12:04:39.756Z,1.30
2018-07-26T12:07:08.303Z,1.40
2018-07-26T12:09:37.400Z,1.30
2018-07-26T12:12:05.885Z,1.50
2018-07-26T12:14:34.361Z,1.40
2018-07-26T12:17:02.536Z,1.80
2018-07-26T12:19:31.172Z,1.40
2018-07-26T12:21:59.599Z,1.30
2018-07-26T12:24:28.077Z,1.27
2018-07-26T12:26:56.681Z,1.40
2018-07-26T12:29:25.324Z,1.30
2018-07-26T12:31:53.819Z,1.10
2018-07-26T12:34:22.250Z,1.30
2018-07-26T12:36:50.788Z,1.40
2018-07-26T12:41:46.913Z,1.20
2018-07-26T12:44:15.421Z,1.40
2018-07-26T12:46:43.875Z,1.10
2018-07-26T12:49:12.349Z,0.98
2018-07-26T12:51:40.757Z,0.80
2018-07-26T12:54:09.213Z,1.05
2018-07-26T12:56:37.680Z,0.88
2018-07-26T12:59:06.163Z,1.00
2018-07-26T13:01:34.635Z,1.20
2018-07-26T13:04:03.134Z,0.90
2018-07-26T13:06:31.891Z,1.00
2018-07-26T13:09:00.523Z,1.10
2018-07-26T13:11:29.050Z,1.15
2018-07-26T13:13:57.433Z,1.00
2018-07-26T13:16:25.913Z,1.20
2018-07-26T13:18:54.372Z,1.05
2018-07-26T13:21:22.812Z,0.90
2018-07-26T13:23:51.893Z,1.10
2018-07-26T13:26:20.590Z,1.00
2018-07-26T13:28:49.179Z,1.00
2018-07-26T13:31:17.683Z,1.00
2018-07-26T13:33:46.184Z,1.20
2018-07-26T13:36:14.625Z,1.60
2018-07-26T13:38:43.090Z,1.50
2018-07-26T13:41:11.566Z,1.00
2018-07-26T13:43:40.053Z,0.90
2018-07-26T13:46:08.660Z,1.00
2018-07-26T13:48:37.113Z,1.10
2018-07-26T13:51:05.628Z,1.10
2018-07-26T13:53:34.096Z,1.07
2018-07-26T13:56:02.572Z,1.17
2018-07-26T13:58:31.291Z,1.10
2018-07-26T14:00:59.706Z,1.05
2018-07-26T14:03:28.279Z,1.00
2018-07-26T14:05:56.774Z,1.27
2018-07-26T14:08:25.242Z,1.12
2018-07-26T14:10:53.657Z,1.30
2018-07-26T14:13:22.096Z,1.40
2018-07-26T14:15:50.704Z,1.20
2018-07-26T14:18:19.259Z,1.40
2018-07-26T14:20:47.756Z,1.20
2018-07-26T14:23:21.387Z,1.40
2018-07-26T14:25:49.917Z,1.40
2018-07-26T14:28:18.039Z,2.00
2018-07-26T14:30:46.440Z,1.40
2018-07-26T14:33:14.857Z,1.57
2018-07-26T14:35:43.216Z,1.10
2018-07-26T14:38:11.837Z,1.20
2018-07-26T14:40:40.300Z,1.40
2018-07-26T14:43:08.729Z,1.12
2018-07-26T14:45:37.169Z,1.30
2018-07-26T14:48:05.670Z,1.20
2018-07-26T14:50:34.120Z,1.50
2018-07-26T14:53:02.556Z,1.50
2018-07-26T14:55:31.543Z,1.30
2018-07-26T14:58:01.214Z,1.67
2018-07-26T15:00:29.868Z,1.40
2018-07-26T15:02:58.402Z,1.40
2018-07-26T15:05:26.975Z,1.60
2018-07-26T15:07:55.417Z,1.20
2018-07-26T15:10:24.284Z,1.50
2018-07-26T15:12:53.061Z,1.53
2018-07-26T15:15:21.675Z,1.40
2018-07-26T15:17:50.334Z,1.35
2018-07-26T15:20:18.836Z,1.15
2018-07-26T15:22:47.346Z,1.20
2018-07-26T15:25:20.039Z,1.10
2018-07-26T15:27:48.394Z,1.60
2018-07-26T15:30:17.095Z,1.67
2018-07-26T15:32:45.906Z,1.40
2018-07-26T15:35:14.430Z,1.60
2018-07-26T15:37:42.980Z,1.40
2018-07-26T15:40:11.876Z,1.40
2018-07-26T15:42:40.497Z,1.53
2018-07-26T15:45:09.268Z,1.50
2018-07-26T15:47:37.693Z,1.60
2018-07-26T15:50:06.145Z,1.73
2018-07-26T15:52:34.591Z,1.60
2018-07-26T15:55:03.213Z,1.40
2018-07-26T15:57:31.600Z,1.70
2018-07-26T16:00:00.198Z,1.53
2018-07-26T16:02:28.774Z,1.67
2018-07-26T16:04:57.194Z,1.63
2018-07-26T16:07:25.597Z,1.57
2018-07-26T16:09:54.471Z,1.70
2018-07-26T16:12:23.792Z,1.93
2018-07-26T16:14:52.944Z,1.87
2018-07-26T16:17:22.458Z,1.80
2018-07-26T16:19:51.706Z,1.80
2018-07-26T16:22:20.776Z,1.93
2018-07-26T16:24:50.025Z,1.93
2018-07-26T16:27:18.158Z,1.90
2018-07-26T16:29:46.573Z,1.60
2018-07-26T16:32:15.204Z,2.20
2018-07-26T16:34:44.025Z,2.00
2018-07-26T16:37:12.964Z,1.97
2018-07-26T16:39:41.564Z,1.80
2018-07-26T16:42:10.346Z,1.80
2018-07-26T16:44:39.308Z,1.70
2018-07-26T16:47:08.633Z,1.90
2018-07-26T16:49:38.192Z,2.07
2018-07-26T16:52:07.809Z,2.20
2018-07-26T16:54:37.207Z,2.27
2018-07-26T16:57:05.944Z,1.77
2018-07-26T16:59:34.583Z,1.80
2018-07-26T17:02:03.058Z,1.83
2018-07-26T17:04:31.890Z,1.87
2018-07-26T17:07:00.338Z,2.00
2018-07-26T17:09:29.150Z,2.00
2018-07-26T17:11:58.825Z,1.80
2018-07-26T17:14:28.262Z,2.00
2018-07-26T17:16:57.507Z,2.00
2018-07-26T17:19:26.452Z,1.97
2018-07-26T17:21:54.593Z,2.17
2018-07-26T17:24:23.130Z,2.30
2018-07-26T17:26:51.532Z,3.17
2018-07-26T17:29:20.060Z,2.30
2018-07-26T17:31:48.403Z,2.33
2018-07-26T17:34:16.877Z,2.33
2018-07-26T17:36:45.276Z,1.90
2018-07-26T17:39:13.765Z,2.40
2018-07-26T17:41:42.142Z,2.30
2018-07-26T17:44:10.225Z,2.70
2018-07-26T17:46:38.319Z,2.17
2018-07-26T17:49:06.391Z,2.40
2018-07-26T17:51:34.486Z,2.03
2018-07-26T17:54:02.561Z,2.00
2018-07-26T17:56:30.660Z,2.30
2018-07-26T17:58:58.784Z,2.27
2018-07-26T18:01:26.897Z,2.20
2018-07-26T18:03:55.013Z,3.27
2018-07-26T18:06:23.127Z,3.00
2018-07-26T18:08:51.209Z,2.67
2018-07-26T18:11:19.333Z,2.80
2018-07-26T18:13:47.428Z,2.90
2018-07-26T18:16:15.567Z,2.27
2018-07-26T18:18:43.741Z,2.50
2018-07-26T18:21:11.879Z,2.80
2018-07-26T18:23:40.019Z,3.10
2018-07-26T18:26:08.239Z,2.97
2018-07-26T18:28:36.362Z,2.90
2018-07-26T18:31:04.580Z,2.87
2018-07-26T18:33:32.743Z,2.77
2018-07-26T18:36:00.811Z,2.93
2018-07-26T18:38:28.995Z,2.80
2018-07-26T18:40:56.964Z,6.07
2018-07-26T18:43:25.106Z,8.00
2018-07-26T18:45:53.164Z,5.27
2018-07-26T18:48:21.281Z,4.27
2018-07-26T18:50:49.407Z,3.53
2018-07-26T18:53:17.699Z,3.80
2018-07-26T18:55:45.784Z,3.90
2018-07-26T18:58:13.849Z,4.07
2018-07-26T19:00:41.967Z,4.10
2018-07-26T19:03:10.094Z,4.60
2018-07-26T19:05:38.532Z,4.40
2018-07-26T19:08:07.188Z,3.53
2018-07-26T19:10:35.632Z,4.23
2018-07-26T19:13:04.243Z,4.40
2018-07-26T19:15:32.859Z,4.40
2018-07-26T19:18:01.338Z,4.30
2018-07-26T19:20:29.854Z,4.27
2018-07-26T19:22:58.251Z,4.40
2018-07-26T19:25:28.339Z,4.30
2018-07-26T19:27:57.646Z,4.13
2018-07-26T19:30:26.170Z,5.10
2018-07-26T19:32:54.567Z,3.93
2018-07-26T19:35:23.084Z,4.77
2018-07-26T19:37:51.480Z,4.93
2018-07-26T19:40:19.949Z,4.20
2018-07-26T19:42:48.427Z,4.30
2018-07-26T19:45:16.893Z,4.50
2018-07-26T19:47:45.371Z,4.50
2018-07-26T19:50:13.833Z,4.77
2018-07-26T19:52:42.304Z,4.50
2018-07-26T19:55:11.948Z,4.83
2018-07-26T19:57:40.487Z,5.17
2018-07-26T20:00:10.077Z,7.17
2018-07-26T20:02:39.242Z,5.10
2018-07-26T20:05:08.363Z,4.80
2018-07-26T20:07:36.770Z,5.10
2018-07-26T20:10:07.981Z,5.30
2018-07-26T20:12:36.621Z,8.13
2018-07-26T20:15:05.696Z,6.50
2018-07-26T20:17:34.141Z,5.43
2018-07-26T20:20:02.656Z,5.20
2018-07-26T20:22:31.078Z,4.97
2018-07-26T20:24:59.459Z,4.60
2018-07-26T20:27:27.873Z,5.00
2018-07-26T20:29:56.288Z,5.07
2018-07-26T20:32:24.695Z,5.30
2018-07-26T20:34:53.085Z,5.30
2018-07-26T20:37:21.457Z,4.97
2018-07-26T20:39:50.003Z,5.00
2018-07-26T20:42:18.434Z,5.07
2018-07-26T20:44:46.850Z,5.47
2018-07-26T20:47:15.286Z,5.10
2018-07-26T20:49:43.792Z,5.27
2018-07-26T20:52:12.199Z,5.67
2018-07-26T20:54:40.552Z,5.20
2018-07-26T20:57:08.954Z,4.90
2018-07-26T20:59:37.400Z,26.80
2018-07-26T21:02:06.089Z,5.43
2018-07-26T21:04:34.444Z,6.37
2018-07-26T21:07:02.824Z,4.60
2018-07-26T21:09:31.523Z,5.30
2018-07-26T21:11:59.931Z,5.50
2018-07-26T21:14:28.031Z,5.10
2018-07-26T21:16:56.468Z,5.57
2018-07-26T21:19:24.855Z,5.80
2018-07-26T21:21:53.284Z,5.43
2018-07-26T21:24:21.750Z,5.70
2018-07-26T21:26:50.153Z,6.33
2018-07-26T21:29:18.548Z,5.70
2018-07-26T21:31:47.013Z,6.33
2018-07-26T21:34:15.396Z,6.00
2018-07-26T21:36:43.818Z,6.80
2018-07-26T21:39:12.366Z,6.00
2018-07-26T21:41:41.080Z,5.97
2018-07-26T21:44:09.500Z,5.40
2018-07-26T21:46:37.859Z,5.93
2018-07-26T21:49:06.372Z,6.60
2018-07-26T21:51:34.697Z,6.97
2018-07-26T21:54:03.121Z,6.73
2018-07-26T21:56:31.485Z,5.83
2018-07-26T21:58:59.961Z,6.20
2018-07-26T22:01:28.340Z,6.63
2018-07-26T22:03:56.722Z,6.03
2018-07-26T22:06:25.146Z,5.97
2018-07-26T22:08:53.473Z,6.47
2018-07-26T22:11:21.877Z,6.53
2018-07-26T22:13:50.252Z,6.57
2018-07-26T22:16:18.648Z,5.87
2018-07-26T22:18:47.051Z,6.40
2018-07-26T22:21:15.483Z,7.83
2018-07-26T22:23:43.860Z,12.00
2018-07-26T22:26:12.252Z,14.33
2018-07-26T22:28:40.713Z,12.77
2018-07-26T22:31:09.128Z,12.50
2018-07-26T22:33:38.363Z,10.53
2018-07-26T22:36:06.712Z,8.40
2018-07-26T22:38:35.077Z,8.23
2018-07-26T22:41:03.456Z,8.23
2018-07-26T22:43:31.817Z,7.00
2018-07-26T22:46:00.262Z,7.07
2018-07-26T22:48:28.574Z,7.07
2018-07-26T22:50:56.957Z,6.73
2018-07-26T22:53:25.372Z,8.40
2018-07-26T22:55:53.853Z,9.93
2018-07-26T22:58:22.220Z,9.00
2018-07-26T23:00:50.610Z,7.70
2018-07-26T23:03:19.012Z,10.00
2018-07-26T23:05:47.397Z,8.83
2018-07-26T23:08:15.794Z,8.03
2018-07-26T23:10:44.192Z,7.40
2018-07-26T23:13:12.525Z,7.40
2018-07-26T23:15:40.915Z,7.40
2018-07-26T23:18:09.333Z,7.03
2018-07-26T23:20:37.720Z,7.30
2018-07-26T23:23:06.072Z,7.60
2018-07-26T23:25:34.408Z,8.27
2018-07-26T23:28:02.768Z,6.63
2018-07-26T23:30:31.161Z,7.80
2018-07-26T23:32:59.516Z,7.90
2018-07-26T23:35:27.900Z,7.47
2018-07-26T23:37:56.272Z,8.00
2018-07-26T23:40:24.722Z,7.77
2018-07-26T23:42:53.140Z,7.70
2018-07-26T23:45:21.497Z,8.97
2018-07-26T23:47:49.844Z,8.03
2018-07-26T23:50:18.207Z,7.97
2018-07-26T23:52:46.634Z,8.50
2018-07-26T23:55:14.970Z,8.20
2018-07-26T23:57:43.312Z,7.90
